createdAt,value
2018-07-06T00:02:38.531Z,101121.61
2018-07-06T00:05:18.274Z,101124.28
2018-07-06T00:07:57.946Z,101121.30
2018-07-06T00:10:37.610Z,101128.77
2018-07-06T00:13:17.275Z,101130.59
2018-07-06T00:15:56.902Z,101127.64
2018-07-06T00:18:36.703Z,101134.30
2018-07-06T00:21:16.577Z,101131.75
2018-07-06T00:23:56.266Z,101136.67
2018-07-06T00:26:35.919Z,101134.54
2018-07-06T00:29:15.579Z,101145.08
2018-07-06T00:31:55.235Z,101145.11
2018-07-06T00:34:34.842Z,101138.59
2018-07-06T00:37:14.528Z,101132.88
2018-07-06T00:39:54.171Z,101135.09
2018-07-06T00:42:34.367Z,101134.65
2018-07-06T00:45:14.111Z,101138.17
2018-07-06T00:47:53.818Z,101142.97
2018-07-06T00:50:33.750Z,101146.91
2018-07-06T00:53:13.534Z,101148.67
2018-07-06T00:55:53.098Z,101148.67
2018-07-06T00:58:32.990Z,101148.67
2018-07-06T01:01:12.711Z,101145.63
2018-07-06T01:03:52.371Z,101140.38
2018-07-06T01:06:31.986Z,101143.42
2018-07-06T01:09:11.660Z,101143.88
2018-07-06T01:11:51.467Z,101143.84
2018-07-06T01:14:31.286Z,101143.84
2018-07-06T01:17:16.059Z,101139.45
2018-07-06T01:19:56.410Z,101145.11
2018-07-06T01:22:36.142Z,101143.80
2018-07-06T01:25:15.860Z,101152.53
2018-07-06T01:27:55.697Z,101144.66
2018-07-06T01:30:35.461Z,101142.90
2018-07-06T01:33:15.286Z,101142.03
2018-07-06T01:35:54.946Z,101146.80
2018-07-06T01:38:34.471Z,101149.88
2018-07-06T01:41:14.154Z,101154.64
2018-07-06T01:43:53.759Z,101156.36
2018-07-06T01:46:33.398Z,101151.53
2018-07-06T01:49:13.067Z,101157.22
2018-07-06T01:51:52.846Z,101158.50
2018-07-06T01:54:32.627Z,101153.66
2018-07-06T01:57:12.331Z,101159.33
2018-07-06T01:59:52.067Z,101157.59
2018-07-06T02:02:31.693Z,101156.70
2018-07-06T02:05:11.314Z,101159.33
2018-07-06T02:07:51.074Z,101161.50
2018-07-06T02:10:30.722Z,101163.27
2018-07-06T02:13:10.371Z,101159.33
2018-07-06T02:15:50.011Z,101159.73
2018-07-06T02:18:29.555Z,101160.15
2018-07-06T02:21:09.192Z,101160.14
2018-07-06T02:23:48.743Z,101162.32
2018-07-06T02:26:29.402Z,101167.12
2018-07-06T02:29:09.221Z,101176.28
2018-07-06T02:31:48.839Z,101166.67
2018-07-06T02:34:28.504Z,101164.05
2018-07-06T02:37:08.179Z,101170.61
2018-07-06T02:39:47.895Z,101175.45
2018-07-06T02:42:27.783Z,101171.09
2018-07-06T02:45:07.452Z,101181.16
2018-07-06T02:47:47.153Z,101179.87
2018-07-06T02:50:26.826Z,101183.38
2018-07-06T02:53:06.627Z,101186.03
2018-07-06T02:55:46.262Z,101186.48
2018-07-06T02:58:26.159Z,101190.88
2018-07-06T03:01:05.830Z,101187.84
2018-07-06T03:03:45.495Z,101188.31
2018-07-06T03:06:25.518Z,101189.63
2018-07-06T03:09:05.183Z,101191.39
2018-07-06T03:11:44.842Z,101187.49
2018-07-06T03:14:24.585Z,101184.45
2018-07-06T03:17:04.403Z,101192.33
2018-07-06T03:19:44.217Z,101190.15
2018-07-06T03:22:24.106Z,101191.88
2018-07-06T03:25:03.670Z,101193.64
2018-07-06T03:27:43.290Z,101192.33
2018-07-06T03:30:23.211Z,101196.27
2018-07-06T03:33:03.019Z,101194.50
2018-07-06T03:35:42.839Z,101194.50
2018-07-06T03:38:22.542Z,101197.13
2018-07-06T03:41:02.183Z,101200.20
2018-07-06T03:43:41.821Z,101203.27
2018-07-06T03:46:21.635Z,101205.42
2018-07-06T03:49:01.435Z,101204.11
2018-07-06T03:51:41.086Z,101200.62
2018-07-06T03:54:20.883Z,101197.95
2018-07-06T03:57:00.683Z,101199.72
2018-07-06T03:59:40.402Z,101199.27
2018-07-06T04:02:20.078Z,101199.27
2018-07-06T04:04:59.630Z,101194.88
2018-07-06T04:07:39.397Z,101204.08
2018-07-06T04:10:19.070Z,101205.83
2018-07-06T04:12:58.847Z,101207.14
2018-07-06T04:15:38.454Z,101206.70
2018-07-06T04:18:18.058Z,101208.46
2018-07-06T04:20:57.922Z,101210.64
2018-07-06T04:23:37.834Z,101212.39
2018-07-06T04:26:17.451Z,101210.64
2018-07-06T04:28:57.135Z,101210.60
2018-07-06T04:31:36.934Z,101210.60
2018-07-06T04:34:16.619Z,101218.06
2018-07-06T04:36:56.343Z,101219.80
2018-07-06T04:39:36.039Z,101220.20
2018-07-06T04:42:15.654Z,101226.36
2018-07-06T04:44:55.236Z,101225.45
2018-07-06T04:47:34.891Z,101229.81
2018-07-06T04:50:14.546Z,101225.45
2018-07-06T04:52:54.167Z,101221.94
2018-07-06T04:55:33.813Z,101225.45
2018-07-06T04:58:13.479Z,101220.62
2018-07-06T05:00:53.118Z,101226.73
2018-07-06T05:03:32.765Z,101220.17
2018-07-06T05:06:12.298Z,101225.39
2018-07-06T05:08:51.942Z,101224.97
2018-07-06T05:11:31.635Z,101225.39
2018-07-06T05:14:11.278Z,101221.89
2018-07-06T05:16:50.975Z,101224.94
2018-07-06T05:19:30.711Z,101226.25
2018-07-06T05:22:10.378Z,101227.15
2018-07-06T05:24:50.074Z,101228.50
2018-07-06T05:27:29.690Z,101225.42
2018-07-06T05:30:09.307Z,101228.02
2018-07-06T05:32:48.947Z,101231.53
2018-07-06T05:35:28.668Z,101234.16
2018-07-06T05:38:08.323Z,101244.67
2018-07-06T05:40:47.981Z,101242.00
2018-07-06T05:43:27.619Z,101244.59
2018-07-06T05:46:07.162Z,101245.02
2018-07-06T05:48:46.799Z,101245.88
2018-07-06T05:51:26.447Z,101251.55
2018-07-06T05:54:06.110Z,101242.31
2018-07-06T05:56:45.835Z,101240.09
2018-07-06T05:59:25.519Z,101246.22
2018-07-06T06:02:05.243Z,101245.73
2018-07-06T06:04:44.989Z,101245.73
2018-07-06T06:07:20.407Z,101250.05
2018-07-06T06:09:48.785Z,101251.36
2018-07-06T06:12:17.428Z,101255.22
2018-07-06T06:14:45.833Z,101260.47
2018-07-06T06:17:14.219Z,101263.06
2018-07-06T06:19:42.646Z,101259.50
2018-07-06T06:22:11.027Z,101266.47
2018-07-06T06:24:39.610Z,101265.16
2018-07-06T06:27:08.014Z,101261.62
2018-07-06T06:29:37.126Z,101267.73
2018-07-06T06:32:06.286Z,101267.28
2018-07-06T06:34:34.690Z,101265.52
2018-07-06T06:37:03.436Z,101268.55
2018-07-06T06:39:32.484Z,101272.45
2018-07-06T06:42:01.118Z,101268.50
2018-07-06T06:44:29.614Z,101268.47
2018-07-06T06:46:58.995Z,101270.64
2018-07-06T06:49:28.119Z,101264.92
2018-07-06T06:51:56.535Z,101266.56
2018-07-06T06:54:24.943Z,101274.34
2018-07-06T06:56:53.847Z,101272.93
2018-07-06T06:59:22.563Z,101278.56
2018-07-06T07:01:50.962Z,101277.19
2018-07-06T07:04:19.392Z,101277.08
2018-07-06T07:06:47.802Z,101276.12
2018-07-06T07:09:16.231Z,101281.73
2018-07-06T07:11:44.606Z,101287.80
2018-07-06T07:14:13.086Z,101293.87
2018-07-06T07:16:41.406Z,101283.72
2018-07-06T07:19:09.798Z,101284.05
2018-07-06T07:21:38.170Z,101282.17
2018-07-06T07:24:06.559Z,101277.23
2018-07-06T07:26:34.970Z,101277.63
2018-07-06T07:29:03.347Z,101281.92
2018-07-06T07:31:31.750Z,101282.72
2018-07-06T07:34:00.120Z,101282.66
2018-07-06T07:36:28.519Z,101286.98
2018-07-06T07:38:56.917Z,101290.45
2018-07-06T07:41:25.320Z,101293.92
2018-07-06T07:43:53.711Z,101290.42
2018-07-06T07:46:22.121Z,101290.83
2018-07-06T07:48:50.517Z,101289.10
2018-07-06T07:52:12.795Z,101296.09
2018-07-06T07:54:52.542Z,101290.45
2018-07-06T07:57:21.098Z,101300.12
2018-07-06T07:59:50.720Z,101300.57
2018-07-06T08:02:19.152Z,101302.75
2018-07-06T08:04:48.004Z,101306.25
2018-07-06T08:07:16.412Z,101297.00
2018-07-06T08:09:44.858Z,101302.16
2018-07-06T08:12:13.258Z,101302.08
2018-07-06T08:14:42.047Z,101302.81
2018-07-06T08:17:10.456Z,101301.37
2018-07-06T08:19:38.835Z,101303.02
2018-07-06T08:22:07.283Z,101302.89
2018-07-06T08:24:35.735Z,101303.63
2018-07-06T08:27:04.139Z,101302.66
2018-07-06T08:29:32.522Z,101304.78
2018-07-06T08:32:00.928Z,101303.77
2018-07-06T08:34:40.715Z,101307.17
2018-07-06T08:37:37.851Z,101309.20
2018-07-06T08:40:06.253Z,101307.34
2018-07-06T08:42:35.578Z,101312.45
2018-07-06T08:45:04.440Z,101313.09
2018-07-06T08:47:32.847Z,101314.98
2018-07-06T08:50:02.019Z,101320.38
2018-07-06T08:52:30.627Z,101320.50
2018-07-06T08:54:59.007Z,101324.16
2018-07-06T08:57:28.606Z,101322.56
2018-07-06T08:59:56.989Z,101330.20
2018-07-06T09:02:25.778Z,101324.60
2018-07-06T09:04:55.050Z,101323.38
2018-07-06T09:07:23.698Z,101326.64
2018-07-06T09:09:52.719Z,101325.09
2018-07-06T09:12:21.114Z,101326.64
2018-07-06T09:14:49.491Z,101325.66
2018-07-06T09:17:18.817Z,101325.00
2018-07-06T09:19:47.669Z,101330.62
2018-07-06T09:22:16.356Z,101321.77
2018-07-06T09:24:45.471Z,101320.88
2018-07-06T09:27:14.007Z,101322.58
2018-07-06T09:29:42.539Z,101321.56
2018-07-06T09:32:11.000Z,101316.61
2018-07-06T09:34:39.642Z,101322.95
2018-07-06T09:37:08.254Z,101316.18
2018-07-06T09:39:36.970Z,101314.14
2018-07-06T09:42:05.376Z,101314.78
2018-07-06T09:44:33.782Z,101313.62
2018-07-06T09:47:02.174Z,101312.54
2018-07-06T09:49:30.622Z,101319.36
2018-07-06T09:51:59.002Z,101310.25
2018-07-06T09:54:27.436Z,101311.66
2018-07-06T09:56:55.802Z,101307.20
2018-07-06T09:59:24.207Z,101316.52
2018-07-06T10:01:52.696Z,101318.92
2018-07-06T10:04:21.127Z,101314.16
2018-07-06T10:06:49.558Z,101309.41
2018-07-06T10:09:17.963Z,101306.30
2018-07-06T10:11:46.339Z,101320.73
2018-07-06T10:14:14.739Z,101319.64
2018-07-06T10:16:43.107Z,101311.93
2018-07-06T10:19:11.498Z,101304.80
2018-07-06T10:21:39.870Z,101308.86
2018-07-06T10:24:08.263Z,101303.59
2018-07-06T10:26:36.646Z,101305.58
2018-07-06T10:30:15.251Z,101305.94
2018-07-06T10:32:43.635Z,101306.12
2018-07-06T10:35:12.019Z,101310.62
2018-07-06T10:37:40.393Z,101296.41
2018-07-06T10:40:08.850Z,101297.54
2018-07-06T10:42:37.226Z,101299.29
2018-07-06T10:45:05.744Z,101287.18
2018-07-06T10:47:34.115Z,101287.59
2018-07-06T10:50:02.507Z,101298.34
2018-07-06T10:52:30.876Z,101301.52
2018-07-06T10:54:59.284Z,101298.80
2018-07-06T10:57:27.654Z,101299.56
2018-07-06T10:59:56.074Z,101297.72
2018-07-06T11:02:24.447Z,101289.88
2018-07-06T11:04:52.863Z,101290.48
2018-07-06T11:07:21.254Z,101293.48
2018-07-06T11:09:49.618Z,101284.26
2018-07-06T11:12:18.015Z,101285.93
2018-07-06T11:14:46.382Z,101291.84
2018-07-06T11:17:14.776Z,101295.70
2018-07-06T11:19:43.155Z,101296.34
2018-07-06T11:22:11.558Z,101290.45
2018-07-06T11:24:39.930Z,101292.13
2018-07-06T11:27:08.338Z,101282.69
2018-07-06T11:29:36.721Z,101291.37
2018-07-06T11:32:05.202Z,101290.73
2018-07-06T11:34:33.540Z,101297.53
2018-07-06T11:37:01.934Z,101300.44
2018-07-06T11:39:30.306Z,101296.79
2018-07-06T11:41:58.715Z,101295.41
2018-07-06T11:44:27.095Z,101309.56
2018-07-06T11:46:55.499Z,101298.02
2018-07-06T11:49:23.879Z,101302.01
2018-07-06T11:51:52.298Z,101302.13
2018-07-06T11:54:20.775Z,101301.74
2018-07-06T11:56:49.147Z,101301.94
2018-07-06T11:59:17.555Z,101307.27
2018-07-06T12:01:45.962Z,101308.75
2018-07-06T12:04:14.446Z,101302.44
2018-07-06T12:06:42.770Z,101303.23
2018-07-06T12:09:11.199Z,101308.51
2018-07-06T12:11:39.574Z,101306.18
2018-07-06T12:14:07.970Z,101308.31
2018-07-06T12:16:36.356Z,101314.67
2018-07-06T12:19:04.767Z,101300.28
2018-07-06T12:21:33.139Z,101304.94
2018-07-06T12:24:01.551Z,101299.55
2018-07-06T12:26:29.935Z,101301.08
2018-07-06T12:28:58.343Z,101308.39
2018-07-06T12:31:26.743Z,101303.88
2018-07-06T12:33:55.174Z,101303.48
2018-07-06T12:36:23.604Z,101309.34
2018-07-06T12:38:52.633Z,101307.53
2018-07-06T12:41:21.113Z,101305.20
2018-07-06T12:43:49.531Z,101302.40
2018-07-06T12:46:17.911Z,101300.87
2018-07-06T12:48:46.359Z,101292.83
2018-07-06T12:51:14.746Z,101302.00
2018-07-06T12:53:43.151Z,101301.00
2018-07-06T12:56:11.531Z,101299.61
2018-07-06T12:58:40.095Z,101296.66
2018-07-06T13:01:08.338Z,101291.59
2018-07-06T13:03:36.763Z,101302.02
2018-07-06T13:06:05.155Z,101304.34
2018-07-06T13:08:33.558Z,101285.94
2018-07-06T13:11:01.988Z,101291.80
2018-07-06T13:13:30.368Z,101293.04
2018-07-06T13:15:58.778Z,101297.36
2018-07-06T13:18:27.270Z,101284.70
2018-07-06T13:20:55.668Z,101290.71
2018-07-06T13:23:24.066Z,101289.33
2018-07-06T13:25:52.505Z,101291.93
2018-07-06T13:28:20.869Z,101297.79
2018-07-06T13:30:49.263Z,101297.31
2018-07-06T13:33:17.639Z,101302.34
2018-07-06T13:35:46.038Z,101295.77
2018-07-06T13:38:14.419Z,101292.16
2018-07-06T13:40:42.829Z,101298.28
2018-07-06T13:43:11.238Z,101305.72
2018-07-06T13:45:39.654Z,101302.05
2018-07-06T13:48:08.044Z,101300.48
2018-07-06T13:50:36.445Z,101311.73
2018-07-06T13:53:05.005Z,101310.39
2018-07-06T13:55:33.422Z,101312.44
2018-07-06T13:58:01.822Z,101311.84
2018-07-06T14:00:30.242Z,101314.84
2018-07-06T14:02:58.626Z,101314.69
2018-07-06T14:05:27.023Z,101318.00
2018-07-06T14:07:55.418Z,101312.93
2018-07-06T14:10:23.906Z,101323.82
2018-07-06T14:12:52.293Z,101321.09
2018-07-06T14:15:20.748Z,101327.77
2018-07-06T14:17:49.144Z,101324.39
2018-07-06T14:20:17.573Z,101313.08
2018-07-06T14:22:45.952Z,101328.19
2018-07-06T14:25:14.346Z,101319.95
2018-07-06T14:27:42.718Z,101327.16
2018-07-06T14:30:11.126Z,101329.02
2018-07-06T14:32:39.514Z,101325.02
2018-07-06T14:35:08.083Z,101314.84
2018-07-06T14:37:36.488Z,101317.65
2018-07-06T14:40:04.884Z,101331.66
2018-07-06T14:42:33.312Z,101332.34
2018-07-06T14:45:01.702Z,101328.13
2018-07-06T14:47:30.107Z,101326.09
2018-07-06T14:49:58.486Z,101331.80
2018-07-06T14:52:26.894Z,101328.13
2018-07-06T14:54:55.265Z,101332.39
2018-07-06T14:57:23.783Z,101329.58
2018-07-06T14:59:52.218Z,101331.77
2018-07-06T15:02:20.643Z,101334.59
2018-07-06T15:04:49.043Z,101336.53
2018-07-06T15:07:17.472Z,101343.88
2018-07-06T15:09:45.880Z,101345.73
2018-07-06T15:12:14.336Z,101345.84
2018-07-06T15:14:43.147Z,101342.39
2018-07-06T15:17:11.660Z,101347.23
2018-07-06T15:19:40.071Z,101340.64
2018-07-06T15:22:08.606Z,101353.23
2018-07-06T15:24:36.999Z,101348.06
2018-07-06T15:27:05.446Z,101351.63
2018-07-06T15:29:33.838Z,101354.30
2018-07-06T15:32:02.274Z,101360.38
2018-07-06T15:34:30.652Z,101355.37
2018-07-06T15:36:59.055Z,101349.43
2018-07-06T15:39:27.428Z,101367.11
2018-07-06T15:41:55.826Z,101364.17
2018-07-06T15:44:24.206Z,101363.95
2018-07-06T15:46:52.907Z,101359.77
2018-07-06T15:49:21.567Z,101365.56
2018-07-06T15:51:49.958Z,101376.08
2018-07-06T15:54:18.362Z,101363.56
2018-07-06T15:56:46.730Z,101375.08
2018-07-06T15:59:15.172Z,101374.60
2018-07-06T16:01:43.556Z,101367.51
2018-07-06T16:04:11.954Z,101370.94
2018-07-06T16:06:40.338Z,101377.21
2018-07-06T16:09:08.767Z,101369.28
2018-07-06T16:11:37.150Z,101374.60
2018-07-06T16:14:05.571Z,101385.81
2018-07-06T16:16:33.963Z,101374.36
2018-07-06T16:19:02.372Z,101369.23
2018-07-06T16:21:30.746Z,101378.22
2018-07-06T16:23:59.410Z,101372.56
2018-07-06T16:26:27.834Z,101382.36
2018-07-06T16:28:56.283Z,101380.02
2018-07-06T16:31:24.663Z,101384.81
2018-07-06T16:33:53.078Z,101379.97
2018-07-06T16:36:21.517Z,101370.77
2018-07-06T16:38:49.907Z,101379.22
2018-07-06T16:41:18.291Z,101387.17
2018-07-06T16:43:46.695Z,101394.11
2018-07-06T16:46:15.070Z,101398.38
2018-07-06T16:48:43.486Z,101393.97
2018-07-06T16:51:11.867Z,101389.15
2018-07-06T16:53:40.576Z,101386.19
2018-07-06T16:56:08.962Z,101393.09
2018-07-06T16:58:37.450Z,101392.71
2018-07-06T17:01:05.893Z,101395.00
2018-07-06T17:03:34.327Z,101393.72
2018-07-06T17:06:02.694Z,101393.58
2018-07-06T17:08:31.123Z,101391.34
2018-07-06T17:10:59.512Z,101395.50
2018-07-06T17:13:27.879Z,101395.05
2018-07-06T17:15:56.288Z,101399.27
2018-07-06T17:18:24.697Z,101401.55
2018-07-06T17:20:53.103Z,101392.36
2018-07-06T17:23:21.488Z,101402.78
2018-07-06T17:25:50.020Z,101405.84
2018-07-06T17:28:18.399Z,101410.55
2018-07-06T17:30:46.804Z,101413.90
2018-07-06T17:33:15.183Z,101414.59
2018-07-06T17:35:43.843Z,101418.61
2018-07-06T17:38:12.223Z,101418.98
2018-07-06T17:40:40.626Z,101421.38
2018-07-06T17:43:09.002Z,101419.15
2018-07-06T17:45:37.407Z,101417.67
2018-07-06T17:48:06.171Z,101414.95
2018-07-06T17:50:34.576Z,101413.40
2018-07-06T17:53:03.070Z,101415.22
2018-07-06T17:55:31.463Z,101414.77
2018-07-06T17:57:59.909Z,101414.73
2018-07-06T18:00:28.559Z,101418.03
2018-07-06T18:02:57.026Z,101421.38
2018-07-06T18:05:25.723Z,101415.62
2018-07-06T18:07:54.146Z,101418.48
2018-07-06T18:10:22.646Z,101422.25
2018-07-06T18:12:51.023Z,101424.52
2018-07-06T18:15:19.572Z,101427.63
2018-07-06T18:17:47.961Z,101430.15
2018-07-06T18:20:16.376Z,101430.22
2018-07-06T18:22:45.103Z,101433.64
2018-07-06T18:25:13.538Z,101436.50
2018-07-06T18:27:42.088Z,101436.67
2018-07-06T18:30:10.535Z,101439.73
2018-07-06T18:32:38.923Z,101439.47
2018-07-06T18:35:07.358Z,101440.48
2018-07-06T18:37:36.505Z,101438.25
2018-07-06T18:40:04.854Z,101447.95
2018-07-06T18:42:33.463Z,101447.10
2018-07-06T18:45:01.843Z,101445.41
2018-07-06T18:47:30.290Z,101449.74
2018-07-06T18:49:58.658Z,101458.07
2018-07-06T18:52:27.078Z,101455.80
2018-07-06T18:54:55.458Z,101466.81
2018-07-06T18:57:23.854Z,101462.77
2018-07-06T18:59:52.277Z,101471.02
2018-07-06T19:02:20.678Z,101468.20
2018-07-06T19:04:49.053Z,101468.41
2018-07-06T19:07:17.479Z,101473.03
2018-07-06T19:09:45.855Z,101471.13
2018-07-06T19:12:14.313Z,101477.08
2018-07-06T19:14:42.687Z,101476.88
2018-07-06T19:17:11.087Z,101481.91
2018-07-06T19:19:39.467Z,101479.52
2018-07-06T19:22:07.854Z,101484.61
2018-07-06T19:24:36.579Z,101483.50
2018-07-06T19:27:04.979Z,101493.45
2018-07-06T19:29:33.374Z,101492.37
2018-07-06T19:32:01.772Z,101497.36
2018-07-06T19:34:30.193Z,101499.28
2018-07-06T19:36:58.640Z,101508.23
2018-07-06T19:39:27.022Z,101516.70
2018-07-06T19:41:55.437Z,101525.27
2018-07-06T19:44:23.811Z,101520.97
2018-07-06T19:46:52.951Z,101528.11
2018-07-06T19:49:21.331Z,101531.78
2018-07-06T19:51:49.866Z,101531.00
2018-07-06T19:54:18.219Z,101542.14
2018-07-06T19:56:46.606Z,101532.63
2018-07-06T19:59:15.008Z,101546.36
2018-07-06T20:01:43.428Z,101545.16
2018-07-06T20:04:11.846Z,101549.70
2018-07-06T20:06:40.235Z,101556.44
2018-07-06T20:09:08.686Z,101563.59
2018-07-06T20:11:37.113Z,101564.13
2018-07-06T20:14:05.551Z,101566.46
2018-07-06T20:16:33.943Z,101573.19
2018-07-06T20:19:02.359Z,101571.11
2018-07-06T20:21:30.746Z,101574.28
2018-07-06T20:23:59.158Z,101572.20
2018-07-06T20:26:27.545Z,101577.55
2018-07-06T20:28:55.971Z,101578.94
2018-07-06T20:31:24.355Z,101583.38
2018-07-06T20:33:52.846Z,101583.87
2018-07-06T20:36:21.235Z,101588.23
2018-07-06T20:38:49.656Z,101586.51
2018-07-06T20:41:18.107Z,101588.72
2018-07-06T20:43:46.511Z,101597.07
2018-07-06T20:46:14.888Z,101595.38
2018-07-06T20:48:43.294Z,101599.39
2018-07-06T20:51:11.678Z,101601.63
2018-07-06T20:53:40.105Z,101610.04
2018-07-06T20:56:08.498Z,101612.27
2018-07-06T20:58:38.555Z,101606.20
2018-07-06T21:01:06.939Z,101608.46
2018-07-06T21:03:35.342Z,101609.83
2018-07-06T21:06:03.723Z,101616.92
2018-07-06T21:08:32.119Z,101612.11
2018-07-06T21:11:00.518Z,101611.70
2018-07-06T21:13:28.894Z,101616.12
2018-07-06T21:15:57.314Z,101623.61
2018-07-06T21:18:25.705Z,101631.52
2018-07-06T21:20:54.151Z,101635.51
2018-07-06T21:23:22.594Z,101638.57
2018-07-06T21:25:50.998Z,101647.78
2018-07-06T21:28:19.375Z,101644.73
2018-07-06T21:30:47.779Z,101646.51
2018-07-06T21:33:16.510Z,101643.87
2018-07-06T21:35:44.966Z,101650.41
2018-07-06T21:38:13.315Z,101648.23
2018-07-06T21:40:41.720Z,101648.23
2018-07-06T21:43:10.103Z,101654.80
2018-07-06T21:45:38.499Z,101653.04
2018-07-06T21:48:06.887Z,101654.78
2018-07-06T21:50:35.314Z,101659.17
2018-07-06T21:53:03.686Z,101653.91
2018-07-06T21:55:32.253Z,101657.39
2018-07-06T21:58:00.498Z,101654.76
2018-07-06T22:00:37.931Z,101656.07
2018-07-06T22:03:06.891Z,101657.37
2018-07-06T22:05:35.295Z,101658.24
2018-07-06T22:08:04.803Z,101657.34
2018-07-06T22:10:33.873Z,101656.02
2018-07-06T22:13:02.275Z,101659.52
2018-07-06T22:15:46.920Z,101658.61
2018-07-06T22:18:17.671Z,101662.08
2018-07-06T22:20:46.949Z,101662.52
2018-07-06T22:23:15.806Z,101658.07
2018-07-06T22:25:44.426Z,101661.98
2018-07-06T22:28:12.843Z,101665.89
2018-07-06T22:30:41.288Z,101664.55
2018-07-06T22:33:09.687Z,101669.78
2018-07-06T22:35:38.095Z,101657.95
2018-07-06T22:38:06.503Z,101664.48
2018-07-06T22:40:34.874Z,101661.80
2018-07-06T22:43:03.282Z,101658.73
2018-07-06T22:45:31.686Z,101659.58
2018-07-06T22:48:00.080Z,101660.41
2018-07-06T22:50:28.490Z,101662.54
2018-07-06T22:52:56.871Z,101663.41
2018-07-06T22:55:25.279Z,101660.75
2018-07-06T22:57:53.650Z,101661.59
2018-07-06T23:00:22.051Z,101661.13
2018-07-06T23:02:50.432Z,101660.25
2018-07-06T23:05:20.046Z,101665.00
2018-07-06T23:07:48.443Z,101664.11
2018-07-06T23:10:16.842Z,101661.91
2018-07-06T23:12:45.246Z,101664.52
2018-07-06T23:15:13.647Z,101662.30
2018-07-06T23:17:42.026Z,101662.68
2018-07-06T23:20:10.427Z,101659.16
2018-07-06T23:23:07.867Z,101654.28
2018-07-06T23:25:37.658Z,101661.66
2018-07-06T23:28:06.366Z,101659.43
2018-07-06T23:30:34.794Z,101660.69
2018-07-06T23:33:04.147Z,101661.53
2018-07-06T23:35:32.775Z,101659.74
2018-07-06T23:38:01.150Z,101655.37
2018-07-06T23:40:29.539Z,101656.63
2018-07-06T23:42:58.101Z,101657.88
2018-07-06T23:45:26.510Z,101658.73
2018-07-06T23:47:54.903Z,101663.44
2018-07-06T23:50:23.622Z,101658.62
2018-07-06T23:52:52.022Z,101659.84
2018-07-06T23:55:20.461Z,101658.05
2018-07-06T23:57:49.137Z,101657.16
